sensor_id;sensor_type;location;lat;lon;timestamp;P1;durP1;ratioP1;P2;durP2;ratioP2
40367;SDS011;26075;43.320;21.920;2022-08-11T00:03:46;8.45;;;6.30;;
40367;SDS011;26075;43.320;21.920;2022-08-11T00:08:48;7.47;;;6.60;;
40367;SDS011;26075;43.320;21.920;2022-08-11T00:13:50;7.85;;;6.22;;
40367;SDS011;26075;43.320;21.920;2022-08-11T00:18:52;7.97;;;5.78;;
40367;SDS011;26075;43.320;21.920;2022-08-11T00:23:54;9.50;;;6.78;;
40367;SDS011;26075;43.320;21.920;2022-08-11T00:28:56;9.57;;;6.95;;
40367;SDS011;26075;43.320;21.920;2022-08-11T00:34:09;10.48;;;6.32;;
40367;SDS011;26075;43.320;21.920;2022-08-11T00:39:10;10.00;;;6.82;;
40367;SDS011;26075;43.320;21.920;2022-08-11T01:15:48;8.50;;;5.47;;
40367;SDS011;26075;43.320;21.920;2022-08-11T01:32:32;7.68;;;5.50;;
40367;SDS011;26075;43.320;21.920;2022-08-11T01:53:17;11.40;;;7.38;;
40367;SDS011;26075;43.320;21.920;2022-08-11T02:09:38;10.45;;;7.43;;
40367;SDS011;26075;43.320;21.920;2022-08-11T02:14:47;9.68;;;6.72;;
40367;SDS011;26075;43.320;21.920;2022-08-11T02:19:54;11.05;;;7.00;;
40367;SDS011;26075;43.320;21.920;2022-08-11T02:30:23;15.00;;;6.40;;
40367;SDS011;26075;43.320;21.920;2022-08-11T02:35:30;9.47;;;6.03;;
40367;SDS011;26075;43.320;21.920;2022-08-11T02:40:45;8.45;;;5.50;;
40367;SDS011;26075;43.320;21.920;2022-08-11T02:45:51;10.52;;;5.78;;
40367;SDS011;26075;43.320;21.920;2022-08-11T03:01:44;9.80;;;5.63;;
40367;SDS011;26075;43.320;21.920;2022-08-11T03:06:51;6.75;;;4.97;;
40367;SDS011;26075;43.320;21.920;2022-08-11T03:12:01;8.63;;;5.55;;
40367;SDS011;26075;43.320;21.920;2022-08-11T03:17:27;9.13;;;6.88;;
40367;SDS011;26075;43.320;21.920;2022-08-11T03:22:31;8.93;;;6.28;;
40367;SDS011;26075;43.320;21.920;2022-08-11T03:27:47;7.20;;;5.72;;
40367;SDS011;26075;43.320;21.920;2022-08-11T03:38:56;8.85;;;5.97;;
40367;SDS011;26075;43.320;21.920;2022-08-11T03:44:02;8.60;;;5.32;;
40367;SDS011;26075;43.320;21.920;2022-08-11T03:49:14;8.63;;;6.13;;
40367;SDS011;26075;43.320;21.920;2022-08-11T04:21:56;8.23;;;5.50;;
40367;SDS011;26075;43.320;21.920;2022-08-11T04:27:11;7.25;;;4.93;;
40367;SDS011;26075;43.320;21.920;2022-08-11T04:43:22;9.35;;;4.82;;
40367;SDS011;26075;43.320;21.920;2022-08-11T04:53:52;7.82;;;4.95;;
40367;SDS011;26075;43.320;21.920;2022-08-11T05:15:44;9.48;;;5.10;;
40367;SDS011;26075;43.320;21.920;2022-08-11T05:21:06;9.40;;;5.90;;
40367;SDS011;26075;43.320;21.920;2022-08-11T05:26:27;9.73;;;5.75;;
40367;SDS011;26075;43.320;21.920;2022-08-11T05:31:50;7.32;;;5.50;;
40367;SDS011;26075;43.320;21.920;2022-08-11T05:42:33;10.18;;;6.10;;
40367;SDS011;26075;43.320;21.920;2022-08-11T05:47:55;11.48;;;5.85;;
40367;SDS011;26075;43.320;21.920;2022-08-11T05:59:12;7.53;;;5.80;;
40367;SDS011;26075;43.320;21.920;2022-08-11T06:04:19;11.57;;;6.63;;
40367;SDS011;26075;43.320;21.920;2022-08-11T06:15:03;9.18;;;5.85;;
40367;SDS011;26075;43.320;21.920;2022-08-11T06:20:05;10.65;;;6.38;;
40367;SDS011;26075;43.320;21.920;2022-08-11T06:25:10;9.20;;;6.35;;
40367;SDS011;26075;43.320;21.920;2022-08-11T06:30:12;11.15;;;6.60;;
40367;SDS011;26075;43.320;21.920;2022-08-11T06:46:10;15.00;;;7.68;;
40367;SDS011;26075;43.320;21.920;2022-08-11T06:51:15;14.13;;;7.82;;
40367;SDS011;26075;43.320;21.920;2022-08-11T06:56:24;11.30;;;6.95;;
40367;SDS011;26075;43.320;21.920;2022-08-11T07:06:59;9.48;;;7.30;;
40367;SDS011;26075;43.320;21.920;2022-08-11T07:17:44;9.95;;;7.63;;
40367;SDS011;26075;43.320;21.920;2022-08-11T07:22:50;13.07;;;7.47;;
40367;SDS011;26075;43.320;21.920;2022-08-11T07:28:23;9.20;;;7.67;;
40367;SDS011;26075;43.320;21.920;2022-08-11T07:33:47;11.27;;;7.65;;
40367;SDS011;26075;43.320;21.920;2022-08-11T07:38:49;16.52;;;7.63;;
40367;SDS011;26075;43.320;21.920;2022-08-11T07:43:54;8.52;;;5.93;;
40367;SDS011;26075;43.320;21.920;2022-08-11T07:48:55;6.45;;;5.75;;
40367;SDS011;26075;43.320;21.920;2022-08-11T07:54:16;8.65;;;5.82;;
40367;SDS011;26075;43.320;21.920;2022-08-11T07:59:17;9.20;;;6.10;;
40367;SDS011;26075;43.320;21.920;2022-08-11T08:04:38;11.52;;;6.07;;
40367;SDS011;26075;43.320;21.920;2022-08-11T08:09:59;11.75;;;6.65;;
40367;SDS011;26075;43.320;21.920;2022-08-11T08:15:20;12.65;;;6.28;;
40367;SDS011;26075;43.320;21.920;2022-08-11T08:20:44;10.30;;;6.95;;
40367;SDS011;26075;43.320;21.920;2022-08-11T08:25:49;8.90;;;6.43;;
40367;SDS011;26075;43.320;21.920;2022-08-11T08:30:54;8.85;;;6.75;;
40367;SDS011;26075;43.320;21.920;2022-08-11T08:35:58;7.10;;;6.03;;
40367;SDS011;26075;43.320;21.920;2022-08-11T08:41:16;9.02;;;5.50;;
40367;SDS011;26075;43.320;21.920;2022-08-11T08:46:18;9.63;;;6.53;;
40367;SDS011;26075;43.320;21.920;2022-08-11T08:51:20;8.38;;;5.75;;
40367;SDS011;26075;43.320;21.920;2022-08-11T08:56:33;8.85;;;6.20;;
40367;SDS011;26075;43.320;21.920;2022-08-11T09:01:37;9.00;;;5.45;;
40367;SDS011;26075;43.320;21.920;2022-08-11T09:06:40;6.45;;;5.05;;
40367;SDS011;26075;43.320;21.920;2022-08-11T09:11:46;10.00;;;5.53;;
40367;SDS011;26075;43.320;21.920;2022-08-11T09:16:57;7.60;;;5.13;;
40367;SDS011;26075;43.320;21.920;2022-08-11T09:21:58;7.93;;;5.00;;
40367;SDS011;26075;43.320;21.920;2022-08-11T09:27:28;10.90;;;4.95;;
40367;SDS011;26075;43.320;21.920;2022-08-11T09:32:30;7.00;;;4.47;;
40367;SDS011;26075;43.320;21.920;2022-08-11T09:37:32;7.40;;;4.30;;
40367;SDS011;26075;43.320;21.920;2022-08-11T09:42:53;7.10;;;4.18;;
40367;SDS011;26075;43.320;21.920;2022-08-11T09:48:12;9.63;;;4.63;;
40367;SDS011;26075;43.320;21.920;2022-08-11T09:53:14;8.55;;;5.10;;
40367;SDS011;26075;43.320;21.920;2022-08-11T09:58:15;6.13;;;3.95;;
40367;SDS011;26075;43.320;21.920;2022-08-11T10:03:21;6.40;;;4.55;;
40367;SDS011;26075;43.320;21.920;2022-08-11T10:08:25;5.60;;;4.20;;
40367;SDS011;26075;43.320;21.920;2022-08-11T10:13:31;6.95;;;3.53;;
40367;SDS011;26075;43.320;21.920;2022-08-11T10:18:55;4.57;;;3.20;;
40367;SDS011;26075;43.320;21.920;2022-08-11T10:23:58;8.48;;;4.03;;
40367;SDS011;26075;43.320;21.920;2022-08-11T10:29:39;10.68;;;3.80;;
40367;SDS011;26075;43.320;21.920;2022-08-11T10:34:58;6.63;;;4.03;;
40367;SDS011;26075;43.320;21.920;2022-08-11T10:40:00;9.63;;;3.13;;
40367;SDS011;26075;43.320;21.920;2022-08-11T10:45:02;8.20;;;3.22;;
40367;SDS011;26075;43.320;21.920;2022-08-11T10:50:24;6.35;;;3.75;;
40367;SDS011;26075;43.320;21.920;2022-08-11T10:55:44;5.60;;;3.30;;
40367;SDS011;26075;43.320;21.920;2022-08-11T11:01:04;8.50;;;3.00;;
40367;SDS011;26075;43.320;21.920;2022-08-11T11:11:11;5.22;;;2.83;;
40367;SDS011;26075;43.320;21.920;2022-08-11T11:16:15;4.93;;;3.10;;
40367;SDS011;26075;43.320;21.920;2022-08-11T11:21:34;4.10;;;2.80;;
40367;SDS011;26075;43.320;21.920;2022-08-11T11:26:56;6.20;;;2.85;;
40367;SDS011;26075;43.320;21.920;2022-08-11T11:37:08;4.80;;;3.30;;
40367;SDS011;26075;43.320;21.920;2022-08-11T11:42:12;7.13;;;2.90;;
40367;SDS011;26075;43.320;21.920;2022-08-11T11:47:13;5.50;;;2.70;;
40367;SDS011;26075;43.320;21.920;2022-08-11T11:52:18;2.90;;;1.70;;
40367;SDS011;26075;43.320;21.920;2022-08-11T11:57:20;5.75;;;3.40;;
40367;SDS011;26075;43.320;21.920;2022-08-11T12:02:40;5.60;;;2.60;;
40367;SDS011;26075;43.320;21.920;2022-08-11T12:07:42;4.85;;;2.65;;
40367;SDS011;26075;43.320;21.920;2022-08-11T12:13:02;6.88;;;2.55;;
40367;SDS011;26075;43.320;21.920;2022-08-11T12:18:23;6.47;;;3.10;;
40367;SDS011;26075;43.320;21.920;2022-08-11T12:23:24;5.55;;;2.33;;
40367;SDS011;26075;43.320;21.920;2022-08-11T12:28:43;5.80;;;2.30;;
40367;SDS011;26075;43.320;21.920;2022-08-11T12:33:44;8.82;;;3.30;;
40367;SDS011;26075;43.320;21.920;2022-08-11T12:38:46;5.20;;;3.30;;
40367;SDS011;26075;43.320;21.920;2022-08-11T12:43:49;4.00;;;2.75;;
40367;SDS011;26075;43.320;21.920;2022-08-11T12:49:11;4.63;;;2.25;;
40367;SDS011;26075;43.320;21.920;2022-08-11T12:54:34;5.47;;;3.00;;
40367;SDS011;26075;43.320;21.920;2022-08-11T12:59:46;3.80;;;2.78;;
40367;SDS011;26075;43.320;21.920;2022-08-11T13:05:07;6.45;;;2.38;;
40367;SDS011;26075;43.320;21.920;2022-08-11T13:10:12;4.28;;;2.80;;
40367;SDS011;26075;43.320;21.920;2022-08-11T13:15:35;4.63;;;3.28;;
40367;SDS011;26075;43.320;21.920;2022-08-11T13:20:36;6.10;;;3.60;;
40367;SDS011;26075;43.320;21.920;2022-08-11T13:25:37;5.53;;;3.45;;
40367;SDS011;26075;43.320;21.920;2022-08-11T13:30:39;5.65;;;2.50;;
40367;SDS011;26075;43.320;21.920;2022-08-11T13:35:59;3.85;;;3.00;;
40367;SDS011;26075;43.320;21.920;2022-08-11T13:41:00;5.22;;;3.05;;
40367;SDS011;26075;43.320;21.920;2022-08-11T13:46:01;8.35;;;3.20;;
40367;SDS011;26075;43.320;21.920;2022-08-11T13:51:22;8.00;;;3.55;;
40367;SDS011;26075;43.320;21.920;2022-08-11T13:56:30;5.03;;;3.15;;
40367;SDS011;26075;43.320;21.920;2022-08-11T14:01:32;5.45;;;3.35;;
40367;SDS011;26075;43.320;21.920;2022-08-11T14:06:40;6.13;;;3.85;;
40367;SDS011;26075;43.320;21.920;2022-08-11T14:11:45;7.45;;;3.75;;
40367;SDS011;26075;43.320;21.920;2022-08-11T14:17:05;6.47;;;3.65;;
40367;SDS011;26075;43.320;21.920;2022-08-11T14:22:07;4.97;;;3.22;;
40367;SDS011;26075;43.320;21.920;2022-08-11T14:27:11;5.68;;;3.97;;
40367;SDS011;26075;43.320;21.920;2022-08-11T14:32:12;11.88;;;4.38;;
40367;SDS011;26075;43.320;21.920;2022-08-11T14:37:17;7.00;;;3.85;;
40367;SDS011;26075;43.320;21.920;2022-08-11T14:42:19;5.82;;;4.22;;
40367;SDS011;26075;43.320;21.920;2022-08-11T14:47:39;5.57;;;4.10;;
40367;SDS011;26075;43.320;21.920;2022-08-11T14:57:50;8.13;;;5.35;;
40367;SDS011;26075;43.320;21.920;2022-08-11T15:02:52;8.85;;;5.40;;
40367;SDS011;26075;43.320;21.920;2022-08-11T15:08:09;7.18;;;4.85;;
40367;SDS011;26075;43.320;21.920;2022-08-11T15:13:16;8.43;;;5.03;;
40367;SDS011;26075;43.320;21.920;2022-08-11T15:18:21;6.50;;;5.03;;
40367;SDS011;26075;43.320;21.920;2022-08-11T15:23:23;8.13;;;5.35;;
40367;SDS011;26075;43.320;21.920;2022-08-11T15:28:47;8.55;;;5.15;;
40367;SDS011;26075;43.320;21.920;2022-08-11T15:34:10;7.33;;;4.80;;
40367;SDS011;26075;43.320;21.920;2022-08-11T15:39:46;6.88;;;5.25;;
40367;SDS011;26075;43.320;21.920;2022-08-11T15:45:21;7.05;;;5.13;;
40367;SDS011;26075;43.320;21.920;2022-08-11T15:50:44;6.32;;;4.90;;
40367;SDS011;26075;43.320;21.920;2022-08-11T15:55:49;11.73;;;6.28;;
40367;SDS011;26075;43.320;21.920;2022-08-11T16:00:50;6.13;;;4.20;;
40367;SDS011;26075;43.320;21.920;2022-08-11T16:06:11;6.65;;;5.20;;
40367;SDS011;26075;43.320;21.920;2022-08-11T16:11:12;5.57;;;3.90;;
40367;SDS011;26075;43.320;21.920;2022-08-11T16:16:14;10.52;;;5.38;;
40367;SDS011;26075;43.320;21.920;2022-08-11T16:21:17;9.55;;;4.60;;
40367;SDS011;26075;43.320;21.920;2022-08-11T16:26:19;5.63;;;3.75;;
40367;SDS011;26075;43.320;21.920;2022-08-11T16:31:22;6.28;;;4.60;;
40367;SDS011;26075;43.320;21.920;2022-08-11T16:36:24;8.80;;;5.65;;
40367;SDS011;26075;43.320;21.920;2022-08-11T16:41:46;8.07;;;4.72;;
40367;SDS011;26075;43.320;21.920;2022-08-11T16:47:09;6.72;;;4.63;;
40367;SDS011;26075;43.320;21.920;2022-08-11T16:52:11;6.47;;;4.77;;
40367;SDS011;26075;43.320;21.920;2022-08-11T16:57:31;8.07;;;5.43;;
40367;SDS011;26075;43.320;21.920;2022-08-11T17:02:52;7.80;;;4.78;;
40367;SDS011;26075;43.320;21.920;2022-08-11T17:08:12;8.07;;;4.35;;
40367;SDS011;26075;43.320;21.920;2022-08-11T17:13:37;7.07;;;4.32;;
40367;SDS011;26075;43.320;21.920;2022-08-11T17:19:02;6.40;;;4.53;;
40367;SDS011;26075;43.320;21.920;2022-08-11T17:24:05;7.45;;;4.70;;
40367;SDS011;26075;43.320;21.920;2022-08-11T17:29:09;10.47;;;6.00;;
40367;SDS011;26075;43.320;21.920;2022-08-11T17:34:10;9.88;;;5.15;;
40367;SDS011;26075;43.320;21.920;2022-08-11T17:39:31;9.25;;;5.53;;
40367;SDS011;26075;43.320;21.920;2022-08-11T17:44:34;10.00;;;7.03;;
40367;SDS011;26075;43.320;21.920;2022-08-11T17:49:55;13.57;;;10.13;;
40367;SDS011;26075;43.320;21.920;2022-08-11T17:54:57;11.15;;;9.65;;
40367;SDS011;26075;43.320;21.920;2022-08-11T18:00:18;13.00;;;9.40;;
40367;SDS011;26075;43.320;21.920;2022-08-11T18:05:19;11.10;;;8.55;;
40367;SDS011;26075;43.320;21.920;2022-08-11T18:10:21;10.80;;;8.52;;
40367;SDS011;26075;43.320;21.920;2022-08-11T18:15:41;10.93;;;7.30;;
40367;SDS011;26075;43.320;21.920;2022-08-11T18:21:02;10.63;;;8.48;;
40367;SDS011;26075;43.320;21.920;2022-08-11T18:26:22;11.77;;;9.32;;
40367;SDS011;26075;43.320;21.920;2022-08-11T18:31:43;17.98;;;9.57;;
40367;SDS011;26075;43.320;21.920;2022-08-11T18:37:09;16.00;;;9.73;;
40367;SDS011;26075;43.320;21.920;2022-08-11T18:42:29;13.85;;;10.02;;
40367;SDS011;26075;43.320;21.920;2022-08-11T18:47:51;14.15;;;9.30;;
40367;SDS011;26075;43.320;21.920;2022-08-11T18:53:17;12.82;;;8.98;;
40367;SDS011;26075;43.320;21.920;2022-08-11T18:58:37;15.02;;;10.55;;
40367;SDS011;26075;43.320;21.920;2022-08-11T19:04:03;10.88;;;9.20;;
40367;SDS011;26075;43.320;21.920;2022-08-11T19:09:24;14.73;;;9.18;;
40367;SDS011;26075;43.320;21.920;2022-08-11T19:14:45;12.88;;;9.05;;
40367;SDS011;26075;43.320;21.920;2022-08-11T19:20:07;11.52;;;9.25;;
40367;SDS011;26075;43.320;21.920;2022-08-11T19:25:29;17.17;;;13.40;;
40367;SDS011;26075;43.320;21.920;2022-08-11T19:30:50;31.67;;;20.70;;
40367;SDS011;26075;43.320;21.920;2022-08-11T19:36:11;23.77;;;17.15;;
40367;SDS011;26075;43.320;21.920;2022-08-11T19:41:31;20.92;;;16.45;;
40367;SDS011;26075;43.320;21.920;2022-08-11T19:46:51;25.30;;;17.90;;
40367;SDS011;26075;43.320;21.920;2022-08-11T19:52:11;26.85;;;19.70;;
40367;SDS011;26075;43.320;21.920;2022-08-11T19:57:31;22.20;;;17.33;;
40367;SDS011;26075;43.320;21.920;2022-08-11T20:02:54;31.63;;;19.45;;
40367;SDS011;26075;43.320;21.920;2022-08-11T20:08:15;26.75;;;17.58;;
40367;SDS011;26075;43.320;21.920;2022-08-11T20:13:35;30.27;;;16.13;;
40367;SDS011;26075;43.320;21.920;2022-08-11T20:18:55;20.58;;;15.25;;
40367;SDS011;26075;43.320;21.920;2022-08-11T20:24:15;21.00;;;12.73;;
40367;SDS011;26075;43.320;21.920;2022-08-11T20:29:36;16.73;;;11.93;;
40367;SDS011;26075;43.320;21.920;2022-08-11T20:34:55;13.93;;;10.48;;
40367;SDS011;26075;43.320;21.920;2022-08-11T20:40:15;13.15;;;10.23;;
40367;SDS011;26075;43.320;21.920;2022-08-11T20:45:35;11.75;;;9.05;;
40367;SDS011;26075;43.320;21.920;2022-08-11T20:50:55;15.38;;;9.85;;
40367;SDS011;26075;43.320;21.920;2022-08-11T20:56:15;18.15;;;9.88;;
40367;SDS011;26075;43.320;21.920;2022-08-11T21:01:36;12.48;;;9.85;;
40367;SDS011;26075;43.320;21.920;2022-08-11T21:06:56;15.00;;;9.90;;
40367;SDS011;26075;43.320;21.920;2022-08-11T21:12:16;13.90;;;9.10;;
40367;SDS011;26075;43.320;21.920;2022-08-11T21:17:36;20.73;;;11.13;;
40367;SDS011;26075;43.320;21.920;2022-08-11T21:22:58;16.85;;;10.48;;
40367;SDS011;26075;43.320;21.920;2022-08-11T21:28:18;16.52;;;11.13;;
40367;SDS011;26075;43.320;21.920;2022-08-11T21:33:39;14.18;;;10.57;;
40367;SDS011;26075;43.320;21.920;2022-08-11T21:39:01;14.70;;;10.13;;
40367;SDS011;26075;43.320;21.920;2022-08-11T21:44:21;17.27;;;10.45;;
40367;SDS011;26075;43.320;21.920;2022-08-11T21:49:41;17.60;;;9.52;;
40367;SDS011;26075;43.320;21.920;2022-08-11T21:55:02;18.38;;;8.40;;
40367;SDS011;26075;43.320;21.920;2022-08-11T22:00:22;17.45;;;8.95;;
40367;SDS011;26075;43.320;21.920;2022-08-11T22:05:42;19.23;;;8.98;;
40367;SDS011;26075;43.320;21.920;2022-08-11T22:11:02;20.00;;;8.98;;
40367;SDS011;26075;43.320;21.920;2022-08-11T22:16:22;15.93;;;9.90;;
40367;SDS011;26075;43.320;21.920;2022-08-11T22:21:42;22.25;;;9.45;;
40367;SDS011;26075;43.320;21.920;2022-08-11T22:27:02;17.30;;;9.18;;
40367;SDS011;26075;43.320;21.920;2022-08-11T22:32:22;12.35;;;8.07;;
40367;SDS011;26075;43.320;21.920;2022-08-11T22:37:43;14.52;;;9.13;;
40367;SDS011;26075;43.320;21.920;2022-08-11T22:43:04;15.18;;;8.20;;
40367;SDS011;26075;43.320;21.920;2022-08-11T22:48:25;12.63;;;7.70;;
40367;SDS011;26075;43.320;21.920;2022-08-11T22:53:46;12.27;;;7.55;;
40367;SDS011;26075;43.320;21.920;2022-08-11T22:59:06;12.43;;;7.93;;
40367;SDS011;26075;43.320;21.920;2022-08-11T23:04:26;10.50;;;7.20;;
40367;SDS011;26075;43.320;21.920;2022-08-11T23:09:46;11.35;;;7.15;;
40367;SDS011;26075;43.320;21.920;2022-08-11T23:15:07;8.40;;;6.60;;
40367;SDS011;26075;43.320;21.920;2022-08-11T23:20:27;12.18;;;7.68;;
40367;SDS011;26075;43.320;21.920;2022-08-11T23:25:47;10.15;;;7.93;;
40367;SDS011;26075;43.320;21.920;2022-08-11T23:31:08;13.60;;;7.22;;
40367;SDS011;26075;43.320;21.920;2022-08-11T23:36:28;8.68;;;6.40;;
40367;SDS011;26075;43.320;21.920;2022-08-11T23:41:48;10.15;;;6.85;;
40367;SDS011;26075;43.320;21.920;2022-08-11T23:47:07;8.95;;;6.80;;
40367;SDS011;26075;43.320;21.920;2022-08-11T23:52:27;8.77;;;6.50;;
40367;SDS011;26075;43.320;21.920;2022-08-11T23:57:48;9.45;;;6.57;;
